createdAt,value
2023-03-06T00:00:40.827Z,100.00
2023-03-06T00:05:45.793Z,100.00
2023-03-06T00:10:48.508Z,100.00
2023-03-06T00:15:51.333Z,100.00
2023-03-06T00:20:55.640Z,100.00
2023-03-06T00:25:58.462Z,100.00
2023-03-06T00:31:01.291Z,100.00
2023-03-06T00:36:07.469Z,100.00
2023-03-06T00:41:10.939Z,100.00
2023-03-06T00:46:13.781Z,100.00
2023-03-06T00:51:19.727Z,100.00
2023-03-06T00:56:22.656Z,100.00
2023-03-06T01:01:25.510Z,100.00
2023-03-06T01:06:29.914Z,100.00
2023-03-06T01:11:33.100Z,100.00
2023-03-06T01:16:36.309Z,100.00
2023-03-06T01:21:40.505Z,100.00
2023-03-06T01:26:43.337Z,100.00
2023-03-06T01:31:46.127Z,100.00
2023-03-06T01:36:50.792Z,100.00
2023-03-06T01:41:53.725Z,100.00
2023-03-06T01:46:56.562Z,100.00
2023-03-06T01:52:04.453Z,100.00
2023-03-06T01:57:13.077Z,100.00
2023-03-06T02:02:16.707Z,100.00
2023-03-06T02:07:22.707Z,100.00
2023-03-06T02:12:25.860Z,100.00
2023-03-06T02:17:29.108Z,100.00
2023-03-06T02:22:38.883Z,100.00
2023-03-06T02:27:43.408Z,100.00
2023-03-06T02:32:46.881Z,100.00
2023-03-06T02:37:50.300Z,100.00
2023-03-06T02:42:57.149Z,100.00
2023-03-06T02:47:59.907Z,100.00
2023-03-06T02:53:02.821Z,100.00
2023-03-06T02:58:08.661Z,100.00
2023-03-06T03:03:11.623Z,100.00
2023-03-06T03:08:14.559Z,100.00
2023-03-06T03:13:19.535Z,100.00
2023-03-06T03:18:23.729Z,100.00
2023-03-06T03:23:27.595Z,100.00
2023-03-06T03:28:34.832Z,100.00
2023-03-06T03:33:38.015Z,100.00
2023-03-06T03:38:41.082Z,100.00
2023-03-06T03:43:45.711Z,100.00
2023-03-06T03:48:48.522Z,100.00
2023-03-06T03:53:52.390Z,100.00
2023-03-06T03:59:00.540Z,100.00
2023-03-06T04:04:09.522Z,100.00
2023-03-06T04:09:13.350Z,100.00
2023-03-06T04:14:17.608Z,100.00
2023-03-06T04:19:20.491Z,100.00
2023-03-06T04:24:23.483Z,100.00
2023-03-06T04:29:27.744Z,100.00
2023-03-06T04:34:30.818Z,100.00
2023-03-06T04:39:33.703Z,100.00
2023-03-06T04:44:38.440Z,100.00
2023-03-06T04:49:41.280Z,100.00
2023-03-06T04:54:45.977Z,100.00
2023-03-06T04:59:50.633Z,100.00
2023-03-06T05:04:53.387Z,100.00
2023-03-06T05:09:56.301Z,100.00
2023-03-06T05:15:00.415Z,100.00
2023-03-06T05:20:06.860Z,100.00
2023-03-06T05:25:11.915Z,100.00
2023-03-06T05:30:16.893Z,100.00
2023-03-06T05:35:22.814Z,100.00
2023-03-06T05:40:25.933Z,100.00
2023-03-06T05:45:30.052Z,100.00
2023-03-06T05:50:32.903Z,100.00
2023-03-06T05:55:35.711Z,100.00
2023-03-06T06:00:39.926Z,100.00
2023-03-06T06:05:43.548Z,100.00
2023-03-06T06:10:46.241Z,100.00
2023-03-06T06:15:51.436Z,100.00
2023-03-06T06:20:55.912Z,100.00
2023-03-06T06:26:00.572Z,100.00
2023-03-06T06:31:10.706Z,100.00
2023-03-06T06:36:18.453Z,100.00
2023-03-06T06:41:50.752Z,100.00
2023-03-06T06:52:09.918Z,100.00
2023-03-06T06:57:13.445Z,100.00
2023-03-06T07:02:17.662Z,100.00
2023-03-06T07:07:20.374Z,100.00
2023-03-06T07:12:23.123Z,100.00
2023-03-06T07:17:27.434Z,100.00
2023-03-06T07:22:41.417Z,100.00
2023-03-06T07:27:54.598Z,100.00
2023-03-06T07:33:01.818Z,100.00
2023-03-06T07:38:04.725Z,100.00
2023-03-06T07:43:18.841Z,100.00
2023-03-06T07:48:32.485Z,100.00
2023-03-06T07:53:36.672Z,100.00
2023-03-06T07:58:41.715Z,100.00
2023-03-06T08:03:51.728Z,100.00
2023-03-06T08:08:58.608Z,100.00
2023-03-06T08:14:01.675Z,100.00
2023-03-06T08:19:06.129Z,100.00
2023-03-06T08:24:09.160Z,100.00
2023-03-06T08:29:13.161Z,100.00
2023-03-06T08:34:19.942Z,100.00
2023-03-06T08:39:24.053Z,100.00
2023-03-06T08:44:28.508Z,100.00
2023-03-06T08:49:36.027Z,100.00
2023-03-06T08:54:41.113Z,100.00
2023-03-06T08:59:43.824Z,100.00
2023-03-06T09:04:48.048Z,100.00
2023-03-06T09:09:51.079Z,100.00
2023-03-06T09:14:54.633Z,100.00
2023-03-06T09:19:58.802Z,100.00
2023-03-06T09:25:02.069Z,100.00
2023-03-06T09:30:10.040Z,100.00
2023-03-06T09:35:15.546Z,100.00
2023-03-06T09:40:27.139Z,100.00
2023-03-06T09:45:41.011Z,100.00
2023-03-06T09:50:52.353Z,100.00
2023-03-06T09:56:03.914Z,100.00
2023-03-06T10:01:11.926Z,100.00
2023-03-06T10:06:21.030Z,100.00
2023-03-06T10:11:28.815Z,100.00
2023-03-06T10:16:35.312Z,100.00
2023-03-06T10:21:48.459Z,100.00
2023-03-06T10:26:56.139Z,100.00
2023-03-06T10:32:04.241Z,100.00
2023-03-06T10:37:18.642Z,100.00
2023-03-06T10:42:22.128Z,100.00
2023-03-06T10:47:32.089Z,100.00
2023-03-06T10:52:37.196Z,100.00
2023-03-06T10:57:41.653Z,100.00
2023-03-06T11:02:44.900Z,100.00
2023-03-06T11:07:57.374Z,100.00
2023-03-06T11:13:06.174Z,100.00
2023-03-06T11:18:31.004Z,100.00
2023-03-06T11:23:40.085Z,100.00
2023-03-06T11:28:47.130Z,100.00
2023-03-06T11:33:53.647Z,100.00
2023-03-06T11:38:58.109Z,100.00
2023-03-06T11:44:13.732Z,100.00
2023-03-06T11:49:23.988Z,100.00
2023-03-06T11:54:28.410Z,100.00
2023-03-06T11:59:52.933Z,100.00
2023-03-06T12:05:11.471Z,99.95
2023-03-06T12:10:20.830Z,95.43
2023-03-06T12:15:35.870Z,94.54
2023-03-06T12:20:53.720Z,77.26
2023-03-06T12:26:05.007Z,70.77
2023-03-06T12:31:27.031Z,66.95
2023-03-06T12:36:44.231Z,64.14
2023-03-06T12:42:02.503Z,62.02
2023-03-06T12:47:10.964Z,59.77
2023-03-06T12:52:30.298Z,60.81
2023-03-06T12:57:35.209Z,64.67
2023-03-06T13:03:05.956Z,61.88
2023-03-06T13:08:28.247Z,64.91
2023-03-06T13:13:35.363Z,67.84
2023-03-06T13:18:59.684Z,68.67
2023-03-06T13:24:07.259Z,73.82
2023-03-06T13:29:42.586Z,76.64
2023-03-06T13:34:49.277Z,83.77
2023-03-06T13:40:28.944Z,91.66
2023-03-06T13:45:38.578Z,94.12
2023-03-06T13:50:44.747Z,94.45
2023-03-06T13:55:59.966Z,93.79
2023-03-06T14:01:22.036Z,96.40
2023-03-06T14:06:52.043Z,95.60
2023-03-06T14:11:58.587Z,94.37
2023-03-06T14:17:05.070Z,97.61
2023-03-06T14:22:18.288Z,97.65
2023-03-06T14:27:22.321Z,100.00
2023-03-06T14:32:28.523Z,100.00
2023-03-06T14:37:40.812Z,100.00
2023-03-06T14:42:44.418Z,100.00
2023-03-06T14:47:51.853Z,100.00
2023-03-06T14:52:59.313Z,100.00
2023-03-06T14:58:06.261Z,100.00
2023-03-06T15:03:17.552Z,100.00
2023-03-06T15:08:26.675Z,100.00
2023-03-06T15:13:31.098Z,100.00
2023-03-06T15:18:36.235Z,100.00
2023-03-06T15:23:43.449Z,100.00
2023-03-06T15:28:59.989Z,100.00
2023-03-06T15:34:27.640Z,100.00
2023-03-06T15:39:34.642Z,100.00
2023-03-06T15:44:37.607Z,100.00
2023-03-06T15:49:41.234Z,100.00
2023-03-06T15:54:46.068Z,100.00
2023-03-06T15:59:48.993Z,100.00
2023-03-06T16:04:53.066Z,100.00
2023-03-06T16:09:57.329Z,100.00
2023-03-06T16:15:02.671Z,100.00
2023-03-06T16:20:07.768Z,100.00
2023-03-06T16:25:13.131Z,100.00
2023-03-06T16:30:18.930Z,100.00
2023-03-06T16:35:22.518Z,100.00
2023-03-06T16:40:29.382Z,100.00
2023-03-06T16:45:38.008Z,100.00
2023-03-06T16:50:41.758Z,100.00
2023-03-06T16:55:46.511Z,100.00
2023-03-06T17:00:50.219Z,100.00
2023-03-06T17:05:52.962Z,100.00
2023-03-06T17:10:57.482Z,100.00
2023-03-06T17:16:01.942Z,100.00
2023-03-06T17:21:05.545Z,100.00
2023-03-06T17:26:12.525Z,100.00
2023-03-06T17:31:17.743Z,100.00
2023-03-06T17:36:20.737Z,100.00
2023-03-06T17:41:25.966Z,100.00
2023-03-06T17:46:28.866Z,100.00
2023-03-06T17:51:31.628Z,100.00
2023-03-06T17:56:37.856Z,100.00
2023-03-06T18:01:41.056Z,100.00
2023-03-06T18:06:43.793Z,100.00
2023-03-06T18:11:48.093Z,100.00
2023-03-06T18:16:51.591Z,100.00
2023-03-06T18:21:54.401Z,100.00
2023-03-06T18:27:04.205Z,100.00
2023-03-06T18:32:09.518Z,100.00
2023-03-06T18:37:14.262Z,100.00
2023-03-06T18:42:18.646Z,100.00
2023-03-06T18:47:21.708Z,100.00
2023-03-06T18:52:24.477Z,100.00
2023-03-06T18:57:30.310Z,100.00
2023-03-06T19:02:33.302Z,100.00
2023-03-06T19:07:36.204Z,100.00
2023-03-06T19:12:40.415Z,100.00
2023-03-06T19:17:43.212Z,100.00
2023-03-06T19:22:46.509Z,100.00
2023-03-06T19:27:50.809Z,100.00
2023-03-06T19:32:54.492Z,100.00
2023-03-06T19:37:57.324Z,100.00
2023-03-06T19:43:01.638Z,100.00
2023-03-06T19:48:05.918Z,100.00
2023-03-06T19:53:11.018Z,100.00
2023-03-06T19:58:16.144Z,100.00
2023-03-06T20:03:19.913Z,100.00
2023-03-06T20:08:22.863Z,100.00
2023-03-06T20:13:27.345Z,100.00
2023-03-06T20:18:30.501Z,100.00
2023-03-06T20:23:33.903Z,100.00
2023-03-06T20:28:39.556Z,100.00
2023-03-06T20:33:43.501Z,100.00
2023-03-06T20:38:47.491Z,100.00
2023-03-06T20:43:51.880Z,100.00
2023-03-06T20:48:55.977Z,100.00
2023-03-06T20:53:59.840Z,100.00
2023-03-06T20:59:04.604Z,100.00
2023-03-06T21:04:09.516Z,100.00
2023-03-06T21:09:13.022Z,100.00
2023-03-06T21:14:17.330Z,100.00
2023-03-06T21:19:22.793Z,100.00
2023-03-06T21:24:26.968Z,100.00
2023-03-06T21:29:31.252Z,100.00
2023-03-06T21:34:34.079Z,100.00
2023-03-06T21:39:38.583Z,100.00
2023-03-06T21:44:42.760Z,100.00
2023-03-06T21:49:46.597Z,100.00
2023-03-06T21:54:49.849Z,100.00
2023-03-06T21:59:54.060Z,100.00
2023-03-06T22:04:56.875Z,100.00
2023-03-06T22:09:59.683Z,100.00
2023-03-06T22:15:04.178Z,100.00
2023-03-06T22:20:08.605Z,100.00
2023-03-06T22:25:11.997Z,100.00
2023-03-06T22:30:17.843Z,100.00
2023-03-06T22:35:21.580Z,100.00
2023-03-06T22:40:25.857Z,100.00
2023-03-06T22:45:30.078Z,100.00
2023-03-06T22:50:34.757Z,100.00
2023-03-06T22:55:37.529Z,100.00
2023-03-06T23:00:41.716Z,100.00
2023-03-06T23:05:44.569Z,100.00
2023-03-06T23:10:47.522Z,100.00
2023-03-06T23:16:10.901Z,100.00
2023-03-06T23:21:34.184Z,100.00
2023-03-06T23:26:55.350Z,100.00
2023-03-06T23:31:59.497Z,100.00
2023-03-06T23:37:02.291Z,100.00
2023-03-06T23:42:05.473Z,100.00
2023-03-06T23:47:10.277Z,100.00
2023-03-06T23:52:13.003Z,100.00
2023-03-06T23:57:15.789Z,100.00
